This is the latest recevied weather packets stored in our database for station/object DB8NZ-11. If no packets are shown the sender has not sent any weather packets the latest 1 day(s).
| Time | Temp. | Humidity | Pressure | Rain* | Wind** | Luminosity | Snow |
|---|---|---|---|---|---|---|---|
| 1778084154 | 18.89° C | 56% | 1010.6 hPa | - | - | - | - |
| 1778081882 | 18.33° C | 54% | 1010.9 hPa | - | - | - | - |
| 1778081748 | 18.33° C | 54% | 1011 hPa | - | - | - | - |
| 1778081657 | 18.33° C | 55% | 1011 hPa | - | - | - | - |
| 1778081625 | 18.33° C | 55% | 1011 hPa | - | - | - | - |
| 1778078022 | 18.89° C | 54% | 1011.2 hPa | - | - | - | - |
| 1778076766 | 20° C | 48% | 1010.9 hPa | - | - | - | - |
| 1778075866 | 21.11° C | 45% | 1010.8 hPa | - | - | - | - |
| 1778072337 | 23.89° C | 40% | 1010.6 hPa | - | - | - | - |
| 1778071437 | 24.44° C | 39% | 1010.7 hPa | - | - | - | - |
| 1778069637 | 23.33° C | 41% | 1010.9 hPa | - | - | - | - |
| 1778065445 | 23.89° C | 39% | 1011.4 hPa | - | - | - | - |
| 1778064002 | 23.33° C | 42% | 1011.7 hPa | - | - | - | - |
| 1778063102 | 22.78° C | 44% | 1011.6 hPa | - | - | - | - |
| 1778060387 | 22.78° C | 44% | 1011.8 hPa | - | - | - | - |
| 1778059960 | 24.44° C | 42% | 1011.8 hPa | - | - | - | - |
| 1778057195 | 22.22° C | 46% | 1012 hPa | - | - | - | - |
| 1778056295 | 21.11° C | 50% | 1012.1 hPa | - | - | - | - |
| 1778052694 | 22.78° C | 46% | 1011.7 hPa | - | - | - | - |
| 1778051794 | 21.67° C | 54% | 1011.9 hPa | - | - | - | - |
| 1778050894 | 17.22° C | 69% | 1011.9 hPa | - | - | - | - |
| 1778049994 | 16.11° C | 74% | 1012.1 hPa | - | - | - | - |
| 1778049094 | 15.56° C | 77% | 1011.9 hPa | - | - | - | - |
| 1778048194 | 15° C | 81% | 1012 hPa | - | - | - | - |
| 1778047294 | 14.44° C | 83% | 1011.8 hPa | - | - | - | - |
* Rain since midnight (hover to see other rain measurements)
** Current wind speed in m/s (hover to see current wind gust speed)